Time;durP1;ratioP1;P1;durP2;ratioP2;P2;SDS_P1;SDS_P2;PMS_P1;PMS_P2;Temp;Humidity;BMP_temperature;BMP_pressure;BME280_temperature;BME280_humidity;BME280_pressure;Samples;Min_cycle;Max_cycle;Signal;HPM_P1;HPM_P2
2021/12/26 00:02:15;;;;;;;22.27;14.13;;;5.10;99.90;;;;;;5095476;28;20534;-56
2021/12/26 00:04:43;;;;;;;17.50;14.03;;;4.80;99.90;;;;;;5095704;28;20440;-56
2021/12/26 00:07:11;;;;;;;17.07;14.10;;;4.70;99.90;;;;;;5095963;28;20483;-56
2021/12/26 00:09:38;;;;;;;19.20;14.13;;;4.90;99.90;;;;;;5095040;28;20480;-56
2021/12/26 00:12:07;;;;;;;17.33;13.60;;;4.80;99.90;;;;;;5095600;28;20439;-56
2021/12/26 00:14:34;;;;;;;17.53;13.10;;;4.90;99.90;;;;;;5095425;28;20435;-56
2021/12/26 00:17:01;;;;;;;19.50;14.00;;;4.90;99.90;;;;;;5095178;28;20454;-56
2021/12/26 00:19:28;;;;;;;16.27;12.50;;;5.10;99.90;;;;;;5095109;28;20454;-56
2021/12/26 00:21:55;;;;;;;17.20;13.10;;;5.20;99.90;;;;;;5095468;28;20558;-56
2021/12/26 00:24:24;;;;;;;14.37;12.67;;;5.10;99.90;;;;;;5095311;28;20526;-57
2021/12/26 00:26:51;;;;;;;17.43;12.70;;;5.00;99.90;;;;;;5094846;28;20486;-55
2021/12/26 00:29:18;;;;;;;15.63;12.13;;;5.20;99.90;;;;;;5095142;28;20455;-56
2021/12/26 00:31:45;;;;;;;15.10;12.43;;;5.50;99.90;;;;;;5094842;28;20818;-56
2021/12/26 00:34:12;;;;;;;15.80;12.67;;;5.10;99.90;;;;;;5094622;28;20444;-56
2021/12/26 00:36:39;;;;;;;15.87;12.20;;;4.90;99.90;;;;;;5095345;28;20455;-56
2021/12/26 00:39:09;;;;;;;14.70;11.73;;;4.90;99.90;;;;;;5094781;28;20443;-58
2021/12/26 00:41:39;;;;;;;16.10;12.07;;;5.20;99.90;;;;;;5094953;28;20554;-57
2021/12/26 00:44:07;;;;;;;15.07;13.03;;;5.30;99.90;;;;;;5094726;28;21016;-56
2021/12/26 00:46:34;;;;;;;16.70;12.90;;;5.30;99.90;;;;;;5094614;28;20574;-56
2021/12/26 00:49:02;;;;;;;14.23;11.13;;;5.40;99.90;;;;;;5094478;28;20539;-56
2021/12/26 00:51:29;;;;;;;12.40;10.53;;;5.30;99.90;;;;;;5094684;28;20471;-56
2021/12/26 00:53:56;;;;;;;20.40;11.43;;;5.00;99.90;;;;;;5094870;28;20955;-57
2021/12/26 00:56:23;;;;;;;15.03;10.40;;;4.80;99.90;;;;;;5094519;28;20446;-57
2021/12/26 00:58:52;;;;;;;15.20;10.57;;;4.70;99.90;;;;;;5094483;28;20427;-57
2021/12/26 01:01:19;;;;;;;15.20;11.10;;;4.70;99.90;;;;;;5094673;28;20467;-56
2021/12/26 01:03:46;;;;;;;14.37;10.17;;;4.80;99.90;;;;;;5094523;28;20447;-56
2021/12/26 01:06:14;;;;;;;12.00;10.77;;;5.00;99.90;;;;;;5094641;28;20490;-56
2021/12/26 01:08:43;;;;;;;14.20;9.93;;;5.10;99.90;;;;;;5094423;28;20481;-56
2021/12/26 01:11:19;;;;;;;14.97;10.63;;;4.90;99.90;;;;;;5094069;28;20845;-57
2021/12/26 01:13:48;;;;;;;14.13;9.97;;;5.00;99.90;;;;;;5094147;28;20971;-56
2021/12/26 01:16:18;;;;;;;13.40;10.40;;;4.90;99.90;;;;;;5094323;28;20443;-56
2021/12/26 01:18:50;;;;;;;11.23;9.03;;;4.60;99.90;;;;;;5094107;28;20944;-56
2021/12/26 01:21:20;;;;;;;13.83;10.90;;;4.80;99.90;;;;;;5094317;28;20522;-56
2021/12/26 01:23:50;;;;;;;14.33;10.83;;;4.70;99.90;;;;;;5094214;28;20451;-56
2021/12/26 01:26:17;;;;;;;11.93;9.80;;;4.70;99.90;;;;;;5093990;28;20452;-56
2021/12/26 01:28:44;;;;;;;12.43;9.13;;;4.80;99.90;;;;;;5093940;28;20542;-57
2021/12/26 01:31:18;;;;;;;14.40;11.57;;;4.80;99.90;;;;;;5093978;28;20482;-56
2021/12/26 01:33:47;;;;;;;12.73;10.60;;;4.90;99.90;;;;;;5093774;28;20760;-57
2021/12/26 01:36:14;;;;;;;11.97;10.10;;;4.80;99.90;;;;;;5093992;28;20462;-56
2021/12/26 01:38:41;;;;;;;11.93;9.60;;;4.80;99.90;;;;;;5093913;28;20827;-56
2021/12/26 01:41:10;;;;;;;12.63;10.90;;;4.80;99.90;;;;;;5093822;28;20467;-56
2021/12/26 01:43:39;;;;;;;13.67;10.57;;;4.70;99.90;;;;;;5093892;28;20474;-56
2021/12/26 01:46:07;;;;;;;13.07;10.23;;;4.80;99.90;;;;;;5093402;28;20542;-56
2021/12/26 01:48:34;;;;;;;16.53;11.67;;;4.80;99.90;;;;;;5093456;28;20454;-56
2021/12/26 01:51:03;;;;;;;11.10;9.97;;;4.70;99.90;;;;;;5093470;28;20448;-57
2021/12/26 01:53:36;;;;;;;16.73;11.30;;;4.60;99.90;;;;;;5093804;28;20462;-56
2021/12/26 01:56:06;;;;;;;12.10;10.00;;;4.60;99.90;;;;;;5093365;28;20903;-57
2021/12/26 01:58:35;;;;;;;11.83;9.93;;;4.70;99.90;;;;;;5093278;28;20447;-57
2021/12/26 02:01:05;;;;;;;11.33;9.73;;;4.80;99.90;;;;;;5093307;28;20466;-57
2021/12/26 02:03:33;;;;;;;11.63;9.93;;;4.70;99.90;;;;;;5093714;28;20424;-57
2021/12/26 02:06:02;;;;;;;15.57;11.80;;;4.90;99.90;;;;;;5093333;28;20948;-57
2021/12/26 02:08:29;;;;;;;13.00;10.50;;;4.80;99.90;;;;;;5093101;28;20553;-56
2021/12/26 02:10:59;;;;;;;12.63;10.10;;;4.90;99.90;;;;;;5093556;28;20554;-56
2021/12/26 02:13:26;;;;;;;14.80;9.83;;;5.00;99.90;;;;;;5093155;28;20799;-56
2021/12/26 02:15:54;;;;;;;13.30;11.60;;;5.10;99.90;;;;;;5093435;28;20933;-56
2021/12/26 02:18:21;;;;;;;15.30;11.67;;;5.20;99.90;;;;;;5093455;28;20436;-56
2021/12/26 02:21:05;;;;;;;10.53;9.03;;;5.30;99.90;;;;;;5093089;28;20953;-56
2021/12/26 02:23:40;;;;;;;9.90;8.30;;;5.50;99.90;;;;;;5093069;28;20893;-56
2021/12/26 02:28:52;;;;;;;12.00;10.10;;;5.60;99.90;;;;;;5093151;28;20546;-56
2021/12/26 02:31:19;;;;;;;14.60;11.10;;;5.60;99.90;;;;;;5093267;28;20547;-56
2021/12/26 02:33:46;;;;;;;11.83;9.50;;;5.50;99.90;;;;;;5093102;28;20526;-56
2021/12/26 02:36:15;;;;;;;11.97;9.00;;;5.20;99.90;;;;;;5093288;28;20534;-56
2021/12/26 02:38:42;;;;;;;13.57;10.83;;;5.20;99.90;;;;;;5093365;28;20776;-56
2021/12/26 02:41:09;;;;;;;13.13;10.80;;;5.20;99.90;;;;;;5093296;28;20470;-56
2021/12/26 02:43:37;;;;;;;13.30;10.60;;;5.10;99.90;;;;;;5093250;28;20452;-56
2021/12/26 02:46:07;;;;;;;12.00;10.80;;;5.00;99.90;;;;;;5093104;28;20817;-56
2021/12/26 02:48:35;;;;;;;14.63;11.07;;;4.80;99.90;;;;;;5093216;28;20834;-56
2021/12/26 02:51:03;;;;;;;15.27;11.83;;;4.80;99.90;;;;;;5093029;28;20470;-57
2021/12/26 02:53:32;;;;;;;15.33;10.83;;;5.00;99.90;;;;;;5092819;28;20450;-56
2021/12/26 02:56:00;;;;;;;12.30;11.00;;;5.10;99.90;;;;;;5093201;28;20450;-56
2021/12/26 02:58:28;;;;;;;12.63;10.83;;;5.00;99.90;;;;;;5096528;28;20953;-56
2021/12/26 03:00:58;;;;;;;13.57;11.00;;;5.00;99.90;;;;;;5096668;28;20467;-56
2021/12/26 03:03:25;;;;;;;12.63;10.23;;;4.90;99.90;;;;;;5096649;28;20484;-56
2021/12/26 03:05:57;;;;;;;13.63;10.87;;;5.00;99.90;;;;;;5097074;28;20529;-57
2021/12/26 03:08:24;;;;;;;16.83;12.30;;;5.10;99.90;;;;;;5096557;28;20491;-57
2021/12/26 03:10:54;;;;;;;14.27;10.77;;;5.10;99.90;;;;;;5096886;28;20467;-56
2021/12/26 03:13:21;;;;;;;14.40;10.77;;;5.00;99.90;;;;;;5096857;28;20859;-56
2021/12/26 03:15:49;;;;;;;13.17;10.07;;;5.10;99.90;;;;;;5096665;28;20458;-56
2021/12/26 03:18:16;;;;;;;17.30;11.60;;;5.30;99.90;;;;;;5096646;28;20825;-56
2021/12/26 03:20:47;;;;;;;12.63;11.33;;;5.40;99.90;;;;;;5096461;28;20463;-56
2021/12/26 03:23:17;;;;;;;13.40;10.87;;;5.60;99.90;;;;;;5096667;28;20434;-56
2021/12/26 03:25:45;;;;;;;14.60;10.67;;;5.70;99.90;;;;;;5096279;28;20438;-56
2021/12/26 03:28:14;;;;;;;13.03;10.60;;;5.70;99.90;;;;;;5096296;28;20895;-56
2021/12/26 03:30:42;;;;;;;15.00;10.13;;;5.70;99.90;;;;;;5096118;28;20467;-56
2021/12/26 03:33:11;;;;;;;12.87;11.40;;;5.50;99.90;;;;;;5096045;28;20948;-56
2021/12/26 03:35:39;;;;;;;18.13;12.93;;;5.60;99.90;;;;;;5096045;28;20459;-57
2021/12/26 03:38:08;;;;;;;13.67;11.37;;;5.70;99.90;;;;;;5096344;28;20451;-57
2021/12/26 03:40:36;;;;;;;16.70;11.90;;;5.80;99.90;;;;;;5095859;28;20478;-57
2021/12/26 03:43:03;;;;;;;14.03;10.87;;;5.70;99.90;;;;;;5096194;28;20451;-56
2021/12/26 03:45:32;;;;;;;21.20;13.27;;;5.50;99.90;;;;;;5096027;28;20462;-57
2021/12/26 03:47:59;;;;;;;14.47;12.97;;;5.50;99.90;;;;;;5095820;28;20832;-57
2021/12/26 03:50:28;;;;;;;13.87;10.90;;;5.10;99.90;;;;;;5095617;28;21058;-56
2021/12/26 03:52:57;;;;;;;17.17;13.23;;;4.90;99.90;;;;;;5096024;28;20447;-56
2021/12/26 03:55:26;;;;;;;15.93;11.87;;;5.00;99.90;;;;;;5096057;28;20806;-57
2021/12/26 03:57:53;;;;;;;19.50;12.60;;;5.10;99.90;;;;;;5095479;28;20444;-56
2021/12/26 04:00:22;;;;;;;16.70;12.83;;;5.10;99.90;;;;;;5095444;28;20471;-56
2021/12/26 04:02:51;;;;;;;15.60;12.60;;;5.30;99.90;;;;;;5095625;28;20953;-57
2021/12/26 04:05:19;;;;;;;18.83;12.73;;;5.30;99.90;;;;;;5095569;28;20443;-57
2021/12/26 04:07:46;;;;;;;15.30;11.60;;;5.40;99.90;;;;;;5094719;28;20820;-57
2021/12/26 04:10:15;;;;;;;17.77;13.27;;;5.40;99.90;;;;;;5095292;28;20485;-57
2021/12/26 04:12:46;;;;;;;19.87;13.27;;;5.50;99.90;;;;;;5095264;28;20462;-56
2021/12/26 04:15:17;;;;;;;17.00;13.23;;;5.50;99.90;;;;;;5095538;28;20745;-57
2021/12/26 04:17:45;;;;;;;21.13;13.17;;;5.60;99.90;;;;;;5095470;28;20424;-56
2021/12/26 04:20:14;;;;;;;16.23;12.03;;;5.70;99.90;;;;;;5095477;28;20562;-57
2021/12/26 04:22:41;;;;;;;17.30;13.63;;;5.80;99.90;;;;;;5095342;28;20450;-57
2021/12/26 04:25:09;;;;;;;18.30;13.47;;;5.70;99.90;;;;;;5095339;28;20440;-56
2021/12/26 04:27:37;;;;;;;20.10;13.73;;;5.40;99.90;;;;;;5095177;28;20480;-56
2021/12/26 04:30:07;;;;;;;18.00;13.70;;;5.50;99.90;;;;;;5095165;28;20467;-55
2021/12/26 04:32:35;;;;;;;16.67;13.23;;;5.60;99.90;;;;;;5095053;28;20442;-55
2021/12/26 04:35:02;;;;;;;17.23;12.73;;;5.70;99.90;;;;;;5095237;28;20448;-56
2021/12/26 04:37:31;;;;;;;17.70;13.67;;;5.60;99.90;;;;;;5095463;28;20451;-57
2021/12/26 04:39:58;;;;;;;21.77;15.57;;;5.60;99.90;;;;;;5094684;28;20471;-56
2021/12/26 04:42:25;;;;;;;21.70;13.83;;;5.50;99.90;;;;;;5095175;28;20466;-56
2021/12/26 04:44:53;;;;;;;20.53;14.37;;;5.70;99.90;;;;;;5095069;28;20444;-57
2021/12/26 04:47:20;;;;;;;17.87;13.00;;;5.80;99.90;;;;;;5094600;28;20956;-57
2021/12/26 04:49:48;;;;;;;19.90;13.37;;;5.80;99.90;;;;;;5094473;28;20448;-56
2021/12/26 04:52:15;;;;;;;19.53;14.70;;;5.80;99.90;;;;;;5094587;28;20539;-56
2021/12/26 04:54:43;;;;;;;17.67;12.90;;;5.80;99.90;;;;;;5094480;28;20934;-56
2021/12/26 04:57:10;;;;;;;18.70;13.60;;;5.80;99.90;;;;;;5094793;28;20459;-56
2021/12/26 04:59:38;;;;;;;17.10;12.43;;;5.70;99.90;;;;;;5094369;28;20439;-57
2021/12/26 05:02:08;;;;;;;20.03;14.30;;;5.60;99.90;;;;;;5094301;28;20874;-56
2021/12/26 05:04:35;;;;;;;19.57;14.90;;;5.50;99.90;;;;;;5094584;28;20448;-56
2021/12/26 05:07:03;;;;;;;18.70;14.33;;;5.60;99.90;;;;;;5094661;28;20458;-56
2021/12/26 05:09:30;;;;;;;22.07;14.87;;;5.60;99.90;;;;;;5093961;28;20487;-56
2021/12/26 05:12:03;;;;;;;25.00;13.77;;;5.60;99.90;;;;;;5094302;28;20467;-57
2021/12/26 05:14:30;;;;;;;18.90;14.50;;;5.70;99.90;;;;;;5094165;28;20451;-56
2021/12/26 05:16:58;;;;;;;17.00;13.00;;;5.80;99.90;;;;;;5094223;28;20444;-57
2021/12/26 05:19:25;;;;;;;17.77;12.30;;;5.90;99.90;;;;;;5093248;28;20881;-57
2021/12/26 05:21:52;;;;;;;16.80;13.57;;;6.00;99.90;;;;;;5094375;28;20474;-56
2021/12/26 05:24:20;;;;;;;17.60;11.47;;;5.90;99.90;;;;;;5094501;28;20450;-56
2021/12/26 05:26:47;;;;;;;19.17;13.80;;;5.90;99.90;;;;;;5093844;28;20439;-56
2021/12/26 05:29:15;;;;;;;22.33;13.20;;;5.90;99.90;;;;;;5093815;28;20509;-56
2021/12/26 05:31:42;;;;;;;18.80;12.27;;;5.70;99.90;;;;;;5094133;28;20467;-56
2021/12/26 05:34:09;;;;;;;19.33;13.93;;;5.50;99.90;;;;;;5093990;28;20444;-57
2021/12/26 05:36:37;;;;;;;19.57;13.97;;;5.40;99.90;;;;;;5094016;28;20451;-57
2021/12/26 05:39:04;;;;;;;20.40;13.80;;;5.40;99.90;;;;;;5093807;28;20443;-57
2021/12/26 05:41:32;;;;;;;15.53;13.00;;;5.40;99.90;;;;;;5093810;28;20553;-56
2021/12/26 05:44:00;;;;;;;17.80;12.53;;;5.30;99.90;;;;;;5093679;28;20946;-56
2021/12/26 05:46:28;;;;;;;19.80;13.40;;;5.50;99.90;;;;;;5093936;28;20447;-56
2021/12/26 05:48:55;;;;;;;16.80;13.10;;;5.50;99.90;;;;;;5093718;28;20486;-56
2021/12/26 05:51:22;;;;;;;20.97;14.10;;;5.70;99.90;;;;;;5093373;28;20467;-57
2021/12/26 05:53:50;;;;;;;19.50;15.53;;;5.60;99.90;;;;;;5093621;28;20972;-57
2021/12/26 05:56:17;;;;;;;18.30;14.00;;;5.60;99.90;;;;;;5093850;28;20448;-57
2021/12/26 05:58:44;;;;;;;22.10;14.80;;;5.70;99.90;;;;;;5093617;28;20451;-57
2021/12/26 06:01:11;;;;;;;17.77;13.30;;;5.70;99.90;;;;;;5093697;28;20473;-56
2021/12/26 06:03:40;;;;;;;15.63;12.30;;;5.70;99.90;;;;;;5093363;28;20448;-56
2021/12/26 06:06:08;;;;;;;17.97;13.27;;;5.60;99.90;;;;;;5093648;28;20459;-57
2021/12/26 06:08:35;;;;;;;20.83;14.80;;;5.70;99.90;;;;;;5093000;28;21003;-57
2021/12/26 06:11:02;;;;;;;18.17;13.30;;;5.70;99.90;;;;;;5093280;28;20482;-56
2021/12/26 06:13:31;;;;;;;19.73;14.90;;;5.80;99.90;;;;;;5093512;28;20478;-56
2021/12/26 06:15:58;;;;;;;21.30;14.90;;;5.80;99.90;;;;;;5093151;28;20451;-57
2021/12/26 06:18:26;;;;;;;19.87;14.40;;;5.60;99.90;;;;;;5093342;28;20440;-56
2021/12/26 06:20:54;;;;;;;19.33;13.50;;;5.70;99.90;;;;;;5093347;28;20463;-57
2021/12/26 06:23:21;;;;;;;20.43;13.60;;;5.80;99.90;;;;;;5093375;28;20884;-56
2021/12/26 06:25:48;;;;;;;18.10;12.83;;;5.90;99.90;;;;;;5093263;28;20538;-57
2021/12/26 06:28:16;;;;;;;18.00;12.90;;;5.90;99.90;;;;;;5092890;28;21009;-56
2021/12/26 06:30:43;;;;;;;18.93;14.10;;;6.00;99.90;;;;;;5094326;28;20554;-56
2021/12/26 06:33:10;;;;;;;19.30;13.30;;;6.00;99.90;;;;;;5097608;28;20530;-56
2021/12/26 06:35:37;;;;;;;21.87;14.00;;;6.00;99.90;;;;;;5097474;28;20451;-56
2021/12/26 06:38:05;;;;;;;23.23;13.27;;;6.00;99.90;;;;;;5097116;28;20427;-56
2021/12/26 06:40:33;;;;;;;17.27;14.13;;;6.00;99.90;;;;;;5097469;28;20473;-56
2021/12/26 06:43:00;;;;;;;20.53;14.27;;;6.00;99.90;;;;;;5097112;28;20450;-56
2021/12/26 06:45:27;;;;;;;18.40;13.37;;;6.00;99.90;;;;;;5097265;28;20496;-56
2021/12/26 06:47:56;;;;;;;21.10;13.77;;;6.10;99.90;;;;;;5097252;28;20447;-56
2021/12/26 06:50:23;;;;;;;23.13;14.37;;;6.10;99.90;;;;;;5097264;28;20473;-56
2021/12/26 06:52:50;;;;;;;18.03;13.90;;;6.10;99.90;;;;;;5097179;28;20449;-56
2021/12/26 06:55:19;;;;;;;20.87;13.53;;;6.10;99.90;;;;;;5097215;28;20451;-56
2021/12/26 06:57:46;;;;;;;19.40;14.10;;;6.10;99.90;;;;;;5097063;28;20443;-56
2021/12/26 07:00:16;;;;;;;16.87;13.17;;;6.10;99.90;;;;;;5096697;28;20462;-56
2021/12/26 07:02:45;;;;;;;17.50;12.60;;;6.20;99.90;;;;;;5096709;28;20447;-56
2021/12/26 07:05:12;;;;;;;19.00;11.60;;;6.10;99.90;;;;;;5096934;28;20450;-56
2021/12/26 07:07:40;;;;;;;18.10;13.67;;;6.20;99.90;;;;;;5096589;28;20478;-56
2021/12/26 07:10:08;;;;;;;20.67;12.03;;;6.30;99.90;;;;;;5096267;28;20487;-55
2021/12/26 07:12:36;;;;;;;18.20;12.97;;;6.30;99.90;;;;;;5096955;28;20455;-56
2021/12/26 07:15:04;;;;;;;16.97;13.50;;;6.20;99.90;;;;;;5096711;28;20450;-56
2021/12/26 07:17:31;;;;;;;16.43;12.70;;;6.20;99.90;;;;;;5096648;28;20474;-56
2021/12/26 07:19:58;;;;;;;19.93;13.87;;;6.20;99.90;;;;;;5096684;28;20489;-56
2021/12/26 07:22:26;;;;;;;15.33;12.30;;;6.20;99.90;;;;;;5096304;28;20450;-57
2021/12/26 07:24:53;;;;;;;18.83;12.63;;;6.10;99.90;;;;;;5096520;28;20440;-56
2021/12/26 07:27:20;;;;;;;20.63;12.57;;;6.00;99.90;;;;;;5096233;28;20453;-56
2021/12/26 07:29:49;;;;;;;17.97;12.97;;;6.00;99.90;;;;;;5096324;28;20510;-55
2021/12/26 07:32:16;;;;;;;17.53;12.33;;;5.90;99.90;;;;;;5096352;28;20522;-56
2021/12/26 07:34:43;;;;;;;18.60;13.17;;;5.90;99.90;;;;;;5096460;28;20443;-56
2021/12/26 07:37:11;;;;;;;17.00;13.07;;;6.00;99.90;;;;;;5096616;28;20459;-56
2021/12/26 07:39:38;;;;;;;17.40;13.30;;;6.10;99.90;;;;;;5096202;28;20896;-56
2021/12/26 07:42:06;;;;;;;21.70;14.60;;;6.10;99.90;;;;;;5095216;28;20450;-56
2021/12/26 07:44:33;;;;;;;18.77;13.97;;;6.10;99.90;;;;;;5096236;28;20447;-57
2021/12/26 07:47:02;;;;;;;17.30;13.00;;;6.10;99.90;;;;;;5096117;28;20447;-57
2021/12/26 07:49:29;;;;;;;15.13;11.57;;;6.10;99.90;;;;;;5095996;28;20490;-57
2021/12/26 07:51:57;;;;;;;17.73;12.67;;;6.20;99.90;;;;;;5095834;28;20469;-57
2021/12/26 07:54:25;;;;;;;18.47;11.80;;;6.20;99.90;;;;;;5095652;28;20452;-57
2021/12/26 07:56:52;;;;;;;26.07;14.77;;;6.30;99.90;;;;;;5096038;28;20479;-57
2021/12/26 07:59:20;;;;;;;20.00;14.03;;;6.40;99.90;;;;;;5096226;28;20617;-55
2021/12/26 08:01:47;;;;;;;19.70;12.27;;;6.40;99.90;;;;;;5095776;28;20464;-55
2021/12/26 08:04:17;;;;;;;18.27;13.50;;;6.50;99.90;;;;;;5095821;28;20443;-55
2021/12/26 08:06:44;;;;;;;19.20;13.73;;;6.40;99.90;;;;;;5096058;28;20459;-56
2021/12/26 08:09:11;;;;;;;18.90;12.37;;;6.30;99.90;;;;;;5095345;28;20491;-56
2021/12/26 08:11:38;;;;;;;17.73;12.73;;;6.30;99.90;;;;;;5095288;28;20977;-56
2021/12/26 08:14:06;;;;;;;17.20;12.97;;;6.30;99.90;;;;;;5095789;28;20534;-56
2021/12/26 08:16:33;;;;;;;21.23;14.17;;;6.40;99.90;;;;;;5095592;28;20469;-57
2021/12/26 08:19:01;;;;;;;20.50;14.60;;;6.40;99.90;;;;;;5095221;28;20929;-56
2021/12/26 08:21:29;;;;;;;20.60;13.50;;;6.30;99.90;;;;;;5095569;28;20468;-56
2021/12/26 08:23:57;;;;;;;17.93;13.10;;;6.30;99.90;;;;;;5095566;28;20482;-56
2021/12/26 08:26:24;;;;;;;17.63;11.47;;;6.40;99.90;;;;;;5095341;28;20542;-56
2021/12/26 08:28:51;;;;;;;17.93;13.20;;;6.40;99.90;;;;;;5094892;28;20533;-57
2021/12/26 08:31:20;;;;;;;22.13;13.97;;;6.40;99.90;;;;;;5095330;28;20464;-56
2021/12/26 08:33:47;;;;;;;19.80;13.10;;;6.50;99.90;;;;;;5094856;28;20451;-57
2021/12/26 08:36:14;;;;;;;20.10;13.80;;;6.50;99.90;;;;;;5095292;28;20474;-56
2021/12/26 08:38:44;;;;;;;19.57;12.97;;;6.70;99.90;;;;;;5095604;28;20447;-57
2021/12/26 08:41:11;;;;;;;20.93;14.37;;;6.70;99.90;;;;;;5095100;28;20506;-56
2021/12/26 08:43:41;;;;;;;19.83;14.90;;;6.70;99.90;;;;;;5094998;28;20450;-57
2021/12/26 08:46:08;;;;;;;19.77;15.27;;;6.80;99.90;;;;;;5095040;28;20452;-56
2021/12/26 08:48:35;;;;;;;20.63;14.17;;;6.90;99.90;;;;;;5094841;28;20447;-57
2021/12/26 08:51:02;;;;;;;22.83;14.80;;;6.90;99.90;;;;;;5094529;28;20966;-57
2021/12/26 08:53:30;;;;;;;22.27;13.93;;;6.90;99.90;;;;;;5094922;28;20447;-57
2021/12/26 08:55:59;;;;;;;20.87;14.73;;;6.90;99.90;;;;;;5094801;28;20808;-56
2021/12/26 08:58:27;;;;;;;19.67;13.50;;;6.80;99.90;;;;;;5094779;28;20451;-56
2021/12/26 09:00:55;;;;;;;20.63;13.87;;;6.70;99.90;;;;;;5094604;28;20467;-56
2021/12/26 09:03:22;;;;;;;19.27;13.53;;;6.80;99.90;;;;;;5094558;28;20451;-56
2021/12/26 09:05:49;;;;;;;21.20;13.50;;;6.70;99.90;;;;;;5094548;28;20463;-57
2021/12/26 09:08:16;;;;;;;18.93;13.20;;;6.70;99.90;;;;;;5092923;28;20956;-56
2021/12/26 09:10:45;;;;;;;20.50;15.00;;;6.70;99.90;;;;;;5094728;28;20487;-57
2021/12/26 09:13:14;;;;;;;24.73;15.53;;;6.80;99.90;;;;;;5094411;28;20534;-56
2021/12/26 09:15:41;;;;;;;22.77;14.87;;;6.80;99.90;;;;;;5094122;28;20952;-56
2021/12/26 09:18:08;;;;;;;20.40;15.27;;;6.70;99.90;;;;;;5094136;28;20452;-56
2021/12/26 09:20:35;;;;;;;20.33;14.67;;;6.80;99.90;;;;;;5094152;28;20554;-56
2021/12/26 09:23:03;;;;;;;17.23;13.10;;;7.00;99.90;;;;;;5094402;28;20444;-57
2021/12/26 09:25:30;;;;;;;20.33;14.90;;;7.10;99.90;;;;;;5094233;28;20443;-56
2021/12/26 09:27:57;;;;;;;23.40;16.13;;;7.10;99.90;;;;;;5093995;28;20547;-57
2021/12/26 09:30:26;;;;;;;21.30;15.20;;;7.20;99.90;;;;;;5093992;28;20490;-56
2021/12/26 09:32:53;;;;;;;17.53;13.10;;;7.20;99.90;;;;;;5094128;28;20919;-56
2021/12/26 09:35:20;;;;;;;19.23;14.40;;;7.30;99.90;;;;;;5093605;28;20482;-57
2021/12/26 09:37:47;;;;;;;22.17;15.67;;;7.30;99.90;;;;;;5094122;28;20523;-57
2021/12/26 09:40:16;;;;;;;22.40;15.23;;;7.40;99.90;;;;;;5094263;28;20463;-57
2021/12/26 09:42:45;;;;;;;20.13;13.90;;;7.50;99.90;;;;;;5093560;28;20450;-57
2021/12/26 09:45:13;;;;;;;16.60;13.80;;;7.40;99.90;;;;;;5093926;28;20876;-57
2021/12/26 09:47:43;;;;;;;19.53;14.30;;;7.30;99.90;;;;;;5093414;28;21021;-57
2021/12/26 09:50:13;;;;;;;22.30;15.40;;;7.30;99.90;;;;;;5093522;28;20490;-57
2021/12/26 09:52:42;;;;;;;20.40;14.40;;;7.40;99.90;;;;;;5093752;28;20808;-57
2021/12/26 09:55:10;;;;;;;23.40;14.90;;;7.40;99.90;;;;;;5093705;28;20448;-57
2021/12/26 09:57:38;;;;;;;21.10;14.80;;;7.30;99.90;;;;;;5093773;28;20834;-57
2021/12/26 10:00:18;;;;;;;15.50;13.43;;;7.40;99.90;;;;;;5093616;28;20462;-56
2021/12/26 10:02:47;;;;;;;22.40;14.57;;;7.40;99.90;;;;;;5093424;28;20432;-56
2021/12/26 10:05:14;;;;;;;20.63;14.27;;;7.40;99.90;;;;;;5093176;28;20447;-57
2021/12/26 10:07:41;;;;;;;19.80;15.00;;;7.50;99.90;;;;;;5093403;28;20531;-57
2021/12/26 10:10:09;;;;;;;22.33;14.77;;;7.60;99.90;;;;;;5093086;28;20498;-56
2021/12/26 10:12:41;;;;;;;23.43;15.20;;;7.50;99.90;;;;;;5093243;28;20955;-57
2021/12/26 10:15:09;;;;;;;24.80;15.27;;;7.40;99.90;;;;;;5093705;28;20434;-57
2021/12/26 10:17:37;;;;;;;19.57;13.37;;;7.50;99.90;;;;;;5093302;28;20443;-57
2021/12/26 10:20:08;;;;;;;21.37;15.17;;;7.60;99.90;;;;;;5093432;28;20506;-57
2021/12/26 10:22:37;;;;;;;18.97;14.37;;;7.70;99.90;;;;;;5093079;28;20524;-57
2021/12/26 10:25:10;;;;;;;22.73;13.63;;;7.50;99.90;;;;;;5093247;28;20942;-57
2021/12/26 10:27:40;;;;;;;16.77;12.27;;;7.80;99.90;;;;;;5093291;28;20495;-56
2021/12/26 10:30:11;;;;;;;19.10;14.40;;;8.00;99.90;;;;;;5093192;28;20517;-57
2021/12/26 10:32:41;;;;;;;18.10;13.07;;;8.00;99.90;;;;;;5093359;28;20446;-57
2021/12/26 10:35:13;;;;;;;21.63;14.90;;;7.90;99.90;;;;;;5093394;28;20474;-57
2021/12/26 10:37:44;;;;;;;17.73;12.83;;;7.80;99.90;;;;;;5093250;28;20428;-57
2021/12/26 10:40:16;;;;;;;17.57;12.63;;;8.00;99.90;;;;;;5093300;28;20455;-56
2021/12/26 10:42:47;;;;;;;18.90;14.70;;;8.20;99.90;;;;;;5092957;28;20789;-57
2021/12/26 10:45:17;;;;;;;18.30;13.70;;;8.10;99.90;;;;;;5093383;28;20433;-57
2021/12/26 10:47:54;;;;;;;16.00;13.17;;;8.10;99.90;;;;;;5093166;28;20439;-56
2021/12/26 10:50:25;;;;;;;16.63;13.03;;;8.10;99.90;;;;;;5092806;28;20475;-56
2021/12/26 10:52:55;;;;;;;17.70;13.30;;;8.00;99.90;;;;;;5093004;28;20408;-56
2021/12/26 10:55:29;;;;;;;16.17;14.27;;;8.00;99.90;;;;;;5092906;28;20938;-56
2021/12/26 10:57:56;;;;;;;14.00;11.33;;;7.80;99.90;;;;;;5093226;28;20427;-56
2021/12/26 11:00:25;;;;;;;16.30;12.43;;;7.70;99.90;;;;;;5092976;28;20546;-57
2021/12/26 11:02:55;;;;;;;16.57;13.33;;;7.90;99.90;;;;;;5093150;28;20447;-57
2021/12/26 11:05:25;;;;;;;14.70;12.20;;;8.00;99.90;;;;;;5093063;28;20443;-56
2021/12/26 11:07:56;;;;;;;19.53;12.83;;;8.00;99.90;;;;;;5093094;28;20432;-56
2021/12/26 11:10:27;;;;;;;17.43;12.67;;;8.20;99.90;;;;;;5092351;28;20498;-56
2021/12/26 11:12:56;;;;;;;15.23;12.07;;;8.30;99.90;;;;;;5092741;28;20450;-56
2021/12/26 11:15:26;;;;;;;17.57;12.80;;;8.40;99.90;;;;;;5092713;28;20459;-57
2021/12/26 11:17:56;;;;;;;18.30;14.20;;;8.30;99.90;;;;;;5093786;28;20450;-56
2021/12/26 11:20:31;;;;;;;16.23;13.60;;;8.40;99.90;;;;;;5096159;28;20830;-57
2021/12/26 11:22:59;;;;;;;17.23;12.07;;;8.80;99.90;;;;;;5096744;28;20520;-56
2021/12/26 11:25:28;;;;;;;17.63;12.63;;;9.20;99.90;;;;;;5096365;28;20455;-56
2021/12/26 11:27:55;;;;;;;15.33;12.20;;;9.10;99.90;;;;;;5096389;28;20451;-57
2021/12/26 11:30:23;;;;;;;15.27;11.93;;;9.10;99.90;;;;;;5096284;28;20532;-56
2021/12/26 11:32:51;;;;;;;14.77;12.40;;;9.30;99.90;;;;;;5096507;28;20447;-56
2021/12/26 11:35:18;;;;;;;13.93;12.37;;;9.30;99.90;;;;;;5095923;28;20447;-56
2021/12/26 11:37:48;;;;;;;12.77;10.47;;;9.10;99.90;;;;;;5096325;28;20419;-56
2021/12/26 11:40:17;;;;;;;12.50;10.13;;;9.20;99.90;;;;;;5096501;28;20459;-57
2021/12/26 11:43:23;;;;;;;13.43;10.80;;;9.10;99.90;;;;;;5095912;28;20454;-56
2021/12/26 11:45:59;;;;;;;13.47;11.00;;;9.20;99.90;;;;;;5096342;28;20427;-56
2021/12/26 11:49:07;;;;;;;13.37;11.10;;;9.20;99.90;;;;;;5096269;28;20502;-56
2021/12/26 11:51:57;;;;;;;12.37;10.13;;;9.30;99.90;;;;;;5095623;28;21050;-57
2021/12/26 11:54:45;;;;;;;13.60;10.43;;;9.20;99.90;;;;;;5086359;28;20455;-56
2021/12/26 11:57:28;;;;;;;13.17;9.07;;;9.10;99.90;;;;;;5095734;28;20424;-57
2021/12/26 12:00:06;;;;;;;14.00;10.10;;;9.10;99.90;;;;;;5095761;28;20485;-56
2021/12/26 12:02:41;;;;;;;11.90;10.40;;;9.10;99.90;;;;;;5095908;28;20420;-56
2021/12/26 12:05:14;;;;;;;12.47;10.53;;;9.00;99.90;;;;;;5095916;28;20452;-57
2021/12/26 12:07:50;;;;;;;12.30;9.53;;;9.00;99.90;;;;;;5095483;28;20423;-57
2021/12/26 12:10:46;;;;;;;10.33;9.33;;;8.90;99.90;;;;;;5094997;28;20856;-57
2021/12/26 12:13:35;;;;;;;11.80;10.03;;;9.00;99.90;;;;;;5095869;28;20430;-57
2021/12/26 12:16:04;;;;;;;12.73;10.20;;;9.20;99.90;;;;;;5095683;28;20957;-56
2021/12/26 12:18:34;;;;;;;11.30;9.97;;;9.30;99.90;;;;;;5095134;28;20447;-57
2021/12/26 12:21:13;;;;;;;11.37;10.03;;;9.20;99.90;;;;;;5095068;28;20467;-56
2021/12/26 12:23:59;;;;;;;12.20;10.20;;;9.30;99.90;;;;;;5095047;28;20435;-57
2021/12/26 12:26:51;;;;;;;11.17;9.50;;;9.20;99.90;;;;;;5094998;28;20424;-56
2021/12/26 12:29:48;;;;;;;12.30;9.50;;;9.00;99.90;;;;;;5094536;28;20409;-56
2021/12/26 12:32:17;;;;;;;11.90;9.50;;;9.20;99.90;;;;;;5094857;28;20483;-57
2021/12/26 12:34:51;;;;;;;9.60;8.30;;;9.40;99.90;;;;;;5095173;28;20439;-57
2021/12/26 12:37:35;;;;;;;10.17;9.13;;;9.40;99.90;;;;;;5095509;28;20561;-56
2021/12/26 12:40:12;;;;;;;10.13;9.13;;;9.20;99.90;;;;;;5094705;28;20480;-57
2021/12/26 12:42:44;;;;;;;10.07;8.80;;;9.30;99.90;;;;;;5094984;28;20435;-56
2021/12/26 12:45:11;;;;;;;10.00;9.00;;;9.60;99.90;;;;;;5095112;28;20783;-56
2021/12/26 12:47:38;;;;;;;11.50;9.40;;;9.70;99.90;;;;;;5094471;28;20475;-56
2021/12/26 12:50:06;;;;;;;11.77;9.33;;;9.60;99.90;;;;;;5094275;28;20490;-56
2021/12/26 12:52:45;;;;;;;10.03;8.77;;;9.60;99.90;;;;;;5094810;28;20757;-57